Terminal Aerodrome Forecast
Issued by NWS

Home | Current Version | Previous Version | Text Only | Print | Product List | Glossary Off
Versions: 1 2 3 4 5 6 7 8 9 10 11 12 13 14 15 16

000
FTUS43 KBIS 240353 AAA
TAFJMS
TAF AMD
KJMS 240353Z 2404/2424 32009KT P6SM SCT090
     FM240900 28009KT P6SM VCSH BKN050 BKN100
     FM241300 31013G22KT P6SM BKN090
     FM241600 32019G27KT P6SM SCT035 BKN050=

USA.gov is the U.S. government's official web portal to all federal, state and local government web resources and services.